createdAt,value
2023-05-11T00:02:40.370Z,43.10
2023-05-11T00:07:41.885Z,43.10
2023-05-11T00:12:43.294Z,43.80
2023-05-11T00:17:44.724Z,43.20
2023-05-11T00:22:46.136Z,43.20
2023-05-11T00:27:47.531Z,43.10
2023-05-11T00:32:49.013Z,43.10
2023-05-11T00:37:50.567Z,43.80
2023-05-11T00:42:51.949Z,43.10
2023-05-11T00:47:53.479Z,43.10
2023-05-11T00:52:54.952Z,43.00
2023-05-11T00:57:56.346Z,43.10
2023-05-11T01:02:57.801Z,43.10
2023-05-11T01:07:59.222Z,43.10
2023-05-11T01:13:00.615Z,43.00
2023-05-11T01:18:02.040Z,43.00
2023-05-11T01:23:03.487Z,43.00
2023-05-11T01:28:04.898Z,43.00
2023-05-11T01:33:06.352Z,43.00
2023-05-11T01:38:07.779Z,42.90
2023-05-11T01:43:09.185Z,42.90
2023-05-11T01:48:10.637Z,42.90
2023-05-11T01:53:12.048Z,42.90
2023-05-11T01:58:13.453Z,42.90
2023-05-11T02:03:14.953Z,42.90
2023-05-11T02:08:16.467Z,43.50
2023-05-11T02:13:17.866Z,42.90
2023-05-11T02:18:19.269Z,42.90
2023-05-11T02:23:20.668Z,42.90
2023-05-11T02:28:22.073Z,42.80
2023-05-11T02:33:23.473Z,42.90
2023-05-11T02:38:24.874Z,42.80
2023-05-11T02:43:26.270Z,42.90
2023-05-11T02:48:27.655Z,42.70
2023-05-11T02:53:29.372Z,42.80
2023-05-11T02:58:31.694Z,42.70
2023-05-11T03:03:33.178Z,42.70
2023-05-11T03:08:34.654Z,42.70
2023-05-11T03:13:36.042Z,42.70
2023-05-11T03:18:37.456Z,42.80
2023-05-11T03:23:38.857Z,42.70
2023-05-11T03:28:40.267Z,42.70
2023-05-11T03:33:41.658Z,43.30
2023-05-11T03:38:43.059Z,43.30
2023-05-11T03:43:44.460Z,42.70
2023-05-11T03:48:45.857Z,42.70
2023-05-11T03:53:47.899Z,42.70
2023-05-11T03:58:49.323Z,42.70
2023-05-11T04:03:50.838Z,42.60
2023-05-11T04:08:52.395Z,42.70
2023-05-11T04:13:53.796Z,42.70
2023-05-11T04:18:55.273Z,42.60
2023-05-11T04:23:56.672Z,42.60
2023-05-11T04:28:58.076Z,42.60
2023-05-11T04:33:59.474Z,42.60
2023-05-11T04:39:00.882Z,42.60
2023-05-11T04:44:02.294Z,42.60
2023-05-11T04:49:03.697Z,42.60
2023-05-11T04:54:05.174Z,42.60
2023-05-11T04:59:06.583Z,42.60
2023-05-11T05:04:08.021Z,42.50
2023-05-11T05:09:09.446Z,42.50
2023-05-11T05:14:10.832Z,42.50
2023-05-11T05:19:12.263Z,42.50
2023-05-11T05:24:13.670Z,42.50
2023-05-11T05:29:15.073Z,42.50
2023-05-11T05:34:16.819Z,42.50
2023-05-11T05:39:36.961Z,42.50
2023-05-11T05:44:38.365Z,42.50
2023-05-11T05:49:39.769Z,42.50
2023-05-11T05:54:41.174Z,42.50
2023-05-11T05:59:42.564Z,42.50
2023-05-11T06:04:43.968Z,42.50
2023-05-11T06:09:45.453Z,42.50
2023-05-11T06:14:46.873Z,42.50
2023-05-11T06:19:48.255Z,42.50
2023-05-11T06:24:49.666Z,43.00
2023-05-11T06:29:51.069Z,42.40
2023-05-11T06:34:52.482Z,42.40
2023-05-11T06:39:53.904Z,42.40
2023-05-11T06:44:55.320Z,42.40
2023-05-11T06:49:56.733Z,42.40
2023-05-11T06:54:58.127Z,42.40
2023-05-11T06:59:59.521Z,42.30
2023-05-11T07:05:00.955Z,42.30
2023-05-11T07:10:02.446Z,42.30
2023-05-11T07:15:03.849Z,42.30
2023-05-11T07:20:05.358Z,42.40
2023-05-11T07:25:06.788Z,42.20
2023-05-11T07:30:08.200Z,42.30
2023-05-11T07:35:09.606Z,42.20
2023-05-11T07:40:11.053Z,42.20
2023-05-11T07:45:12.590Z,42.20
2023-05-11T07:50:13.999Z,42.80
2023-05-11T07:55:16.661Z,42.20
2023-05-11T08:00:18.338Z,42.20
2023-05-11T08:05:20.105Z,42.20
2023-05-11T08:10:21.730Z,42.20
2023-05-11T08:15:23.124Z,42.10
2023-05-11T08:20:24.549Z,42.10
2023-05-11T08:25:26.028Z,42.10
2023-05-11T08:30:27.452Z,42.10
2023-05-11T08:35:28.901Z,42.10
2023-05-11T08:40:30.280Z,42.10
2023-05-11T08:45:31.734Z,42.10
2023-05-11T08:50:33.186Z,42.00
2023-05-11T08:55:34.596Z,42.10
2023-05-11T09:00:36.104Z,42.60
2023-05-11T09:05:37.530Z,42.00
2023-05-11T09:10:39.023Z,41.90
2023-05-11T09:15:40.432Z,42.00
2023-05-11T09:20:41.848Z,42.00
2023-05-11T09:25:43.246Z,41.90
2023-05-11T09:30:44.653Z,42.00
2023-05-11T09:35:46.073Z,41.80
2023-05-11T09:40:47.469Z,41.80
2023-05-11T09:45:48.848Z,41.80
2023-05-11T09:50:50.272Z,41.80
2023-05-11T09:55:51.703Z,41.80
2023-05-11T10:00:53.108Z,41.90
2023-05-11T10:05:54.499Z,41.80
2023-05-11T10:10:55.904Z,41.70
2023-05-11T10:15:57.351Z,41.80
2023-05-11T10:20:58.797Z,41.80
2023-05-11T10:26:00.181Z,41.70
2023-05-11T10:31:01.583Z,41.80
2023-05-11T10:36:02.970Z,41.80
2023-05-11T10:41:04.366Z,41.80
2023-05-11T10:46:05.804Z,41.70
2023-05-11T10:51:08.151Z,41.80
2023-05-11T10:56:09.551Z,41.80
2023-05-11T11:01:10.990Z,41.80
2023-05-11T11:06:12.617Z,41.80
2023-05-11T11:11:14.117Z,41.80
2023-05-11T11:16:16.702Z,41.90
2023-05-11T11:21:18.282Z,41.90
2023-05-11T11:26:19.705Z,42.00
2023-05-11T11:31:21.196Z,42.00
2023-05-11T11:36:22.744Z,42.00
2023-05-11T11:41:24.166Z,42.00
2023-05-11T11:46:25.598Z,42.40
2023-05-11T11:51:27.038Z,42.40
2023-05-11T11:56:28.416Z,42.30
2023-05-11T12:01:29.818Z,43.20
2023-05-11T12:06:31.199Z,43.10
2023-05-11T12:11:32.598Z,43.00
2023-05-11T12:16:34.027Z,42.90
2023-05-11T12:21:35.462Z,42.90
2023-05-11T12:26:36.882Z,42.90
2023-05-11T12:31:38.403Z,42.80
2023-05-11T12:36:39.887Z,43.30
2023-05-11T12:41:41.274Z,42.50
2023-05-11T12:46:42.701Z,42.40
2023-05-11T12:51:44.148Z,43.00
2023-05-11T12:56:45.554Z,43.30
2023-05-11T13:01:47.048Z,43.30
2023-05-11T13:06:48.478Z,43.10
2023-05-11T13:11:49.893Z,43.00
2023-05-11T13:16:51.296Z,42.90
2023-05-11T13:21:52.707Z,42.80
2023-05-11T13:26:54.088Z,42.70
2023-05-11T13:31:55.507Z,43.10
2023-05-11T13:36:56.972Z,43.10
2023-05-11T13:41:58.366Z,43.00
2023-05-11T13:46:59.815Z,43.00
2023-05-11T13:52:01.245Z,43.10
2023-05-11T13:57:02.644Z,42.90
2023-05-11T14:02:04.310Z,42.90
2023-05-11T14:07:05.936Z,42.70
2023-05-11T14:12:07.342Z,42.60
2023-05-11T14:17:08.829Z,43.20
2023-05-11T14:22:10.280Z,42.20
2023-05-11T14:27:11.693Z,41.90
2023-05-11T14:32:13.091Z,41.70
2023-05-11T14:37:14.505Z,41.60
2023-05-11T14:42:15.929Z,41.30
2023-05-11T14:47:17.404Z,41.30
2023-05-11T14:52:18.808Z,41.50
2023-05-11T14:57:20.200Z,41.30
2023-05-11T15:02:22.514Z,40.90
2023-05-11T15:07:25.338Z,42.30
2023-05-11T15:12:26.773Z,43.70
2023-05-11T15:17:28.209Z,43.00
2023-05-11T15:22:29.635Z,42.90
2023-05-11T15:27:31.065Z,43.50
2023-05-11T15:32:32.566Z,42.80
2023-05-11T15:37:34.024Z,42.80
2023-05-11T15:42:35.420Z,42.70
2023-05-11T15:47:36.851Z,42.70
2023-05-11T15:52:38.269Z,42.60
2023-05-11T15:57:39.660Z,42.50
2023-05-11T16:02:41.182Z,42.50
2023-05-11T16:07:42.617Z,42.40
2023-05-11T16:12:44.038Z,42.30
2023-05-11T16:17:45.453Z,42.30
2023-05-11T16:22:46.866Z,42.30
2023-05-11T16:27:48.281Z,42.30
2023-05-11T16:32:49.793Z,42.30
2023-05-11T16:37:51.223Z,42.30
2023-05-11T16:42:52.642Z,42.30
2023-05-11T16:47:54.078Z,42.30
2023-05-11T16:52:55.579Z,42.20
2023-05-11T16:57:57.007Z,42.00
2023-05-11T17:02:58.502Z,41.90
2023-05-11T17:07:59.997Z,42.50
2023-05-11T17:13:01.420Z,41.90
2023-05-11T17:18:02.872Z,41.90
2023-05-11T17:23:04.334Z,41.90
2023-05-11T17:28:05.741Z,41.90
2023-05-11T17:33:07.397Z,41.90
2023-05-11T17:38:08.980Z,41.90
2023-05-11T17:43:10.396Z,41.90
2023-05-11T17:48:11.855Z,41.90
2023-05-11T17:53:13.289Z,41.90
2023-05-11T17:58:14.690Z,41.90
2023-05-11T18:03:16.227Z,41.90
2023-05-11T18:08:17.724Z,41.90
2023-05-11T18:13:19.140Z,41.90
2023-05-11T18:18:20.550Z,41.90
2023-05-11T18:23:21.989Z,41.90
2023-05-11T18:28:23.421Z,42.00
2023-05-11T18:33:24.933Z,42.00
2023-05-11T18:38:26.362Z,42.00
2023-05-11T18:43:27.760Z,41.90
2023-05-11T18:48:29.181Z,42.00
2023-05-11T18:53:30.641Z,42.00
2023-05-11T18:58:32.044Z,42.00
2023-05-11T19:03:33.468Z,42.00
2023-05-11T19:08:34.881Z,42.00
2023-05-11T19:13:36.285Z,42.00
2023-05-11T19:18:37.708Z,42.00
2023-05-11T19:23:39.132Z,42.00
2023-05-11T19:28:40.532Z,42.10
2023-05-11T19:33:42.081Z,42.10
2023-05-11T19:38:43.499Z,42.00
2023-05-11T19:43:44.915Z,42.00
2023-05-11T19:48:46.313Z,42.10
2023-05-11T19:53:47.847Z,42.10
2023-05-11T19:58:49.251Z,42.00
2023-05-11T20:03:50.705Z,42.00
2023-05-11T20:08:52.209Z,42.00
2023-05-11T20:13:53.698Z,42.00
2023-05-11T20:18:55.246Z,42.10
2023-05-11T20:23:56.677Z,42.00
2023-05-11T20:28:58.091Z,42.00
2023-05-11T20:39:03.948Z,42.10
2023-05-11T20:44:05.471Z,42.10
2023-05-11T20:49:06.872Z,42.10
2023-05-11T20:54:08.295Z,42.10
2023-05-11T21:00:03.727Z,42.10
2023-05-11T21:04:31.093Z,42.10
2023-05-11T21:09:32.528Z,42.20
2023-05-11T21:14:34.018Z,42.10
2023-05-11T21:19:35.486Z,42.20
2023-05-11T21:24:36.877Z,42.20
2023-05-11T21:29:38.288Z,42.20
2023-05-11T21:34:39.705Z,42.20
2023-05-11T21:39:41.118Z,42.20
2023-05-11T21:44:42.508Z,42.20
2023-05-11T21:49:43.910Z,42.10
2023-05-11T21:54:45.337Z,42.20
2023-05-11T21:59:46.751Z,42.10
2023-05-11T22:04:48.187Z,42.20
2023-05-11T22:09:49.592Z,42.20
2023-05-11T22:14:51.009Z,42.10
2023-05-11T22:19:52.435Z,42.10
2023-05-11T22:24:53.853Z,42.20
2023-05-11T22:29:55.269Z,42.20
2023-05-11T22:34:56.743Z,42.20
2023-05-11T22:39:58.176Z,42.10
2023-05-11T22:44:59.577Z,42.20
2023-05-11T22:50:01.004Z,42.20
2023-05-11T22:55:02.630Z,42.20
2023-05-11T23:00:04.086Z,42.20
2023-05-11T23:05:05.486Z,42.20
2023-05-11T23:10:06.916Z,42.20
2023-05-11T23:15:08.324Z,42.20
2023-05-11T23:20:09.736Z,42.20
2023-05-11T23:25:11.147Z,42.20
2023-05-11T23:30:12.552Z,42.30
2023-05-11T23:35:13.954Z,42.30
2023-05-11T23:40:15.372Z,42.30
2023-05-11T23:45:16.777Z,42.30
2023-05-11T23:50:18.341Z,42.40
2023-05-11T23:55:19.925Z,42.30
